This is the latest recevied weather packets stored in our database for station/object AC5JC-1. If no packets are shown the sender has not sent any weather packets the latest 10 day(s).
| Time | Temp. | Humidity | Pressure | Rain* | Wind** | Luminosity | Snow |
|---|---|---|---|---|---|---|---|
| 1777823735 | 23.89° C | 50% | 1021.7 hPa | 0 mm | - | 647 W/m² | - |
| 1777823135 | 23.33° C | 52% | 1021.8 hPa | 0 mm | - | 653 W/m² | - |
| 1777820470 | 22.22° C | 59% | 1021.7 hPa | 0 mm | - | 497 W/m² | - |
| 1777819536 | 21.11° C | 59% | 1021.6 hPa | 0 mm | - | 436 W/m² | - |
| 1777818935 | 20.56° C | 62% | 1021.6 hPa | 0 mm | - | 376 W/m² | - |
| 1777816835 | 18.89° C | 69% | 1021.7 hPa | 0 mm | - | 243 W/m² | - |
| 1777816535 | 18.33° C | 70% | 1021.6 hPa | 0 mm | - | 248 W/m² | - |
| 1777815936 | 17.78° C | 70% | 1021.6 hPa | 0 mm | - | 209 W/m² | - |
| 1777814435 | 16.67° C | 74% | 1021.4 hPa | 0 mm | - | 137 W/m² | - |
| 1777813574 | 15° C | 80% | 1021.3 hPa | 0 mm | - | 91 W/m² | - |
| 1777811135 | 11.67° C | 89% | 1021.2 hPa | 0 mm | - | 22 W/m² | - |
| 1777809974 | 11.67° C | 89% | 1020.7 hPa | 0 mm | - | 12 W/m² | - |
| 1777809654 | 11.67° C | 89% | 1020.7 hPa | 0 mm | - | 9 W/m² | - |
| 1777809035 | 11.67° C | 89% | 1020.7 hPa | 0 mm | - | 4 W/m² | - |
| 1777806635 | 12.22° C | 87% | 1020.4 hPa | 0 mm | - | 0 W/m² | - |
| 1777806071 | 12.22° C | 85% | 1020.3 hPa | 0 mm | - | 0 W/m² | - |
| 1777805750 | 12.22° C | 85% | 1020.3 hPa | 0 mm | - | 0 W/m² | - |
| 1777801835 | 12.78° C | 82% | 1020.3 hPa | 0 mm | - | 0 W/m² | - |
| 1777799158 | 12.78° C | 82% | 1020.2 hPa | 0 mm | - | 0 W/m² | - |
| 1777798839 | 12.78° C | 83% | 1020.2 hPa | 0 mm | - | 0 W/m² | - |
| 1777797936 | 13.33° C | 82% | 1020.1 hPa | 0 mm | - | 0 W/m² | - |
| 1777797623 | 13.33° C | 81% | 1020.1 hPa | 0 mm | - | 0 W/m² | - |
| 1777795575 | 13.33° C | 81% | 1020.3 hPa | 0 mm | - | 0 W/m² | - |
| 1777791035 | 13.89° C | 81% | 1020.7 hPa | 0 mm | - | 0 W/m² | - |
| 1777789543 | 13.33° C | 84% | 1020.7 hPa | 0 mm | - | 0 W/m² | - |
* Rain latest hour (hover to see other rain measurements)
** Current wind speed in m/s (hover to see current wind gust speed)